PWSweather.com
Personal Weather Stations
Station Observations
SEANO
CarmignanoIT

CarmignanoIT

Lat: 43.829667, Lon: 11.02622

Elevation: 142

Station Type: Davis Vantage Pro2

http://www.meteoseano.it

Latest ConditionsUpdated 8:25:00 PM GMT+01:01 Saturday, Apr 20, 2019
Currently Today's Max Today's Min Today's Average
Temperature 64.9°F18.3°C 75.9°F24.4°C 47.8°F8.8°C 63.8°F17.7°C
Dew Point 43.0°F6.1°C 44.5°F6.9°C 37.8°F3.2°C 41.3°F5.2°C
Winds Calm Calm 13.8 mph -22.2 kmh - - 4.0 mph 6.4 kmh
Wind Gusts 2.3 mph3.7 kmh 19.6 mph31.5 kmh - -
Humidity 45% 77% 28% 47%
Pressure 30.20 in1022.7 mb 30.34 in1027.4 mb 30.18 in1022.0 mb -
Hour Temp Dew Point Humidity Winds Wind Gusts Pressure Precip Precip Rate Daily Precip Total
08:25 PM 64.9°F18.3°C 43.0°F6.1°C 45% Calm Calm 2.3 mph3.7 kmh 30.20 in1022.7 mb - 0.00 in0.0 mm 0.00 in0.0 mm
08:20 PM 65.4°F18.6°C 43.5°F6.4°C 45% 1.2 mph WNW1.9 kmh WNW 2.3 mph3.7 kmh 30.20 in1022.7 mb - 0.00 in0.0 mm 0.00 in0.0 mm
08:15 PM 65.9°F18.8°C 44.0°F6.7°C 45% 1.2 mph WNW1.9 kmh WNW 3.5 mph5.6 kmh 30.20 in1022.7 mb - 0.00 in0.0 mm 0.00 in0.0 mm
08:10 PM 66.4°F19.1°C 43.8°F6.6°C 44% 2.3 mph WNW3.7 kmh WNW 3.5 mph5.6 kmh 30.20 in1022.7 mb - 0.00 in0.0 mm 0.00 in0.0 mm
08:00 PM 67.2°F19.6°C 43.3°F6.3°C 42% Calm Calm 2.3 mph3.7 kmh 30.20 in1022.7 mb - 0.00 in0.0 mm 0.00 in0.0 mm
07:55 PM 67.5°F19.7°C 43.0°F6.1°C 41% 3.5 mph W5.6 kmh W 5.8 mph9.3 kmh 30.19 in1022.4 mb - 0.00 in0.0 mm 0.00 in0.0 mm
07:50 PM 67.7°F19.8°C 42.5°F5.8°C 40% 1.2 mph NNE1.9 kmh NNE 2.3 mph3.7 kmh 30.19 in1022.4 mb - 0.00 in0.0 mm 0.00 in0.0 mm
07:45 PM 67.9°F19.9°C 41.3°F5.2°C 38% 4.6 mph NNE7.4 kmh NNE 6.9 mph11.1 kmh 30.19 in1022.4 mb - 0.00 in0.0 mm 0.00 in0.0 mm
07:40 PM 68.0°F20.0°C 42.1°F5.6°C 39% Calm Calm 1.2 mph1.9 kmh 30.19 in1022.4 mb - 0.00 in0.0 mm 0.00 in0.0 mm
07:35 PM 68.3°F20.2°C 41.7°F5.4°C 38% 3.5 mph NE5.6 kmh NE 4.6 mph7.4 kmh 30.19 in1022.4 mb - 0.00 in0.0 mm 0.00 in0.0 mm
07:30 PM 68.5°F20.3°C 41.9°F5.5°C 38% 3.5 mph NE5.6 kmh NE 3.5 mph5.6 kmh 30.19 in1022.4 mb - 0.00 in0.0 mm 0.00 in0.0 mm
07:25 PM 68.7°F20.4°C 42.1°F5.6°C 38% 5.8 mph NNE9.3 kmh NNE 8.1 mph13.0 kmh 30.19 in1022.4 mb - 0.00 in0.0 mm 0.00 in0.0 mm
07:20 PM 68.9°F20.5°C 41.5°F5.3°C 37% 5.8 mph NE9.3 kmh NE 10.4 mph16.7 kmh 30.19 in1022.4 mb - 0.00 in0.0 mm 0.00 in0.0 mm
07:15 PM 69.1°F20.6°C 41.7°F5.4°C 37% 4.6 mph NNE7.4 kmh NNE 8.1 mph13.0 kmh 30.18 in1022.0 mb - 0.00 in0.0 mm 0.00 in0.0 mm
07:10 PM 69.3°F20.7°C 41.9°F5.5°C 37% 6.9 mph NNE11.1 kmh NNE 10.4 mph16.7 kmh 30.18 in1022.0 mb - 0.00 in0.0 mm 0.00 in0.0 mm
07:00 PM 69.7°F20.9°C 42.3°F5.7°C 37% 2.3 mph NE3.7 kmh NE 3.5 mph5.6 kmh 30.18 in1022.0 mb - 0.00 in0.0 mm 0.00 in0.0 mm
06:55 PM 69.9°F21.1°C 42.4°F5.8°C 37% 5.8 mph N9.3 kmh N 9.2 mph14.8 kmh 30.18 in1022.0 mb - 0.00 in0.0 mm 0.00 in0.0 mm
06:50 PM 70.0°F21.1°C 42.5°F5.8°C 37% 4.6 mph N7.4 kmh N 6.9 mph11.1 kmh 30.18 in1022.0 mb - 0.00 in0.0 mm 0.00 in0.0 mm
06:45 PM 70.1°F21.2°C 42.6°F5.9°C 37% 5.8 mph NE9.3 kmh NE 6.9 mph11.1 kmh 30.18 in1022.0 mb - 0.00 in0.0 mm 0.00 in0.0 mm
06:40 PM 70.2°F21.2°C 42.7°F5.9°C 37% 6.9 mph NNE11.1 kmh NNE 16.1 mph25.9 kmh 30.18 in1022.0 mb - 0.00 in0.0 mm 0.00 in0.0 mm
06:35 PM 70.4°F21.3°C 42.2°F5.7°C 36% 5.8 mph N9.3 kmh N 8.1 mph13.0 kmh 30.18 in1022.0 mb - 0.00 in0.0 mm 0.00 in0.0 mm
06:30 PM 70.6°F21.4°C 42.3°F5.7°C 36% 6.9 mph NNE11.1 kmh NNE 11.5 mph18.5 kmh 30.18 in1022.0 mb - 0.00 in0.0 mm 0.00 in0.0 mm
06:25 PM 70.8°F21.6°C 41.8°F5.4°C 35% 6.9 mph NE11.1 kmh NE 10.4 mph16.7 kmh 30.18 in1022.0 mb - 0.00 in0.0 mm 0.00 in0.0 mm
06:20 PM 71.0°F21.7°C 42.0°F5.6°C 35% 6.9 mph N11.1 kmh N 12.7 mph20.4 kmh 30.18 in1022.0 mb - 0.00 in0.0 mm 0.00 in0.0 mm
06:15 PM 71.2°F21.8°C 42.1°F5.6°C 35% 4.6 mph NE7.4 kmh NE 9.2 mph14.8 kmh 30.18 in1022.0 mb - 0.00 in0.0 mm 0.00 in0.0 mm
06:10 PM 71.4°F21.9°C 42.3°F5.7°C 35% 5.8 mph NNE9.3 kmh NNE 8.1 mph13.0 kmh 30.18 in1022.0 mb - 0.00 in0.0 mm 0.00 in0.0 mm
06:00 PM 71.8°F22.1°C 41.9°F5.5°C 34% 6.9 mph NNE11.1 kmh NNE 9.2 mph14.8 kmh 30.18 in1022.0 mb - 0.00 in0.0 mm 0.00 in0.0 mm
05:55 PM 72.0°F22.2°C 42.1°F5.6°C 34% 10.4 mph N16.7 kmh N 13.8 mph22.2 kmh 30.18 in1022.0 mb - 0.00 in0.0 mm 0.00 in0.0 mm
05:50 PM 72.2°F22.3°C 42.3°F5.7°C 34% 6.9 mph NNE11.1 kmh NNE 12.7 mph20.4 kmh 30.18 in1022.0 mb - 0.00 in0.0 mm 0.00 in0.0 mm
05:45 PM 72.4°F22.4°C 42.5°F5.8°C 34% 5.8 mph NNE9.3 kmh NNE 9.2 mph14.8 kmh 30.18 in1022.0 mb - 0.00 in0.0 mm 0.00 in0.0 mm
05:40 PM 72.6°F22.6°C 42.6°F5.9°C 34% 6.9 mph N11.1 kmh N 11.5 mph18.5 kmh 30.18 in1022.0 mb - 0.00 in0.0 mm 0.00 in0.0 mm
05:35 PM 72.6°F22.6°C 42.6°F5.9°C 34% 4.6 mph NNE7.4 kmh NNE 5.8 mph9.3 kmh 30.18 in1022.0 mb - 0.00 in0.0 mm 0.00 in0.0 mm
05:30 PM 72.8°F22.7°C 43.5°F6.4°C 35% 3.5 mph NE5.6 kmh NE 4.6 mph7.4 kmh 30.18 in1022.0 mb - 0.00 in0.0 mm 0.00 in0.0 mm
05:25 PM 72.8°F22.7°C 42.8°F6.0°C 34% 4.6 mph NE7.4 kmh NE 5.8 mph9.3 kmh 30.18 in1022.0 mb - 0.00 in0.0 mm 0.00 in0.0 mm
05:20 PM 72.9°F22.7°C 42.1°F5.6°C 33% 6.9 mph NNE11.1 kmh NNE 11.5 mph18.5 kmh 30.18 in1022.0 mb - 0.00 in0.0 mm 0.00 in0.0 mm
05:15 PM 73.1°F22.8°C 42.2°F5.7°C 33% 10.4 mph NE16.7 kmh NE 11.5 mph18.5 kmh 30.18 in1022.0 mb - 0.00 in0.0 mm 0.00 in0.0 mm
05:10 PM 73.2°F22.9°C 42.4°F5.8°C 33% 8.1 mph NNE13.0 kmh NNE 15.0 mph24.1 kmh 30.18 in1022.0 mb - 0.00 in0.0 mm 0.00 in0.0 mm
05:00 PM 73.3°F22.9°C 43.2°F6.2°C 34% 6.9 mph NNE11.1 kmh NNE 11.5 mph18.5 kmh 30.18 in1022.0 mb - 0.00 in0.0 mm 0.00 in0.0 mm
04:55 PM 73.4°F23.0°C 42.5°F5.8°C 33% 9.2 mph NNE14.8 kmh NNE 12.7 mph20.4 kmh 30.18 in1022.0 mb - 0.00 in0.0 mm 0.00 in0.0 mm
04:50 PM 73.7°F23.2°C 42.8°F6.0°C 33% 8.1 mph NE13.0 kmh NE 16.1 mph25.9 kmh 30.18 in1022.0 mb - 0.00 in0.0 mm 0.00 in0.0 mm
04:45 PM 74.0°F23.3°C 43.0°F6.1°C 33% 12.7 mph NE20.4 kmh NE 19.6 mph31.5 kmh 30.18 in1022.0 mb - 0.00 in0.0 mm 0.00 in0.0 mm
04:40 PM 74.1°F23.4°C 43.1°F6.2°C 33% 9.2 mph NE14.8 kmh NE 13.8 mph22.2 kmh 30.18 in1022.0 mb - 0.00 in0.0 mm 0.00 in0.0 mm
04:35 PM 74.2°F23.4°C 42.4°F5.8°C 32% 8.1 mph NE13.0 kmh NE 11.5 mph18.5 kmh 30.18 in1022.0 mb - 0.00 in0.0 mm 0.00 in0.0 mm
04:30 PM 74.3°F23.5°C 43.3°F6.3°C 33% 6.9 mph NE11.1 kmh NE 11.5 mph18.5 kmh 30.18 in1022.0 mb - 0.00 in0.0 mm 0.00 in0.0 mm
04:25 PM 74.6°F23.7°C 42.8°F6.0°C 32% 10.4 mph NNE16.7 kmh NNE 12.7 mph20.4 kmh 30.18 in1022.0 mb - 0.00 in0.0 mm 0.00 in0.0 mm
04:20 PM 74.8°F23.8°C 42.9°F6.1°C 32% 13.8 mph N22.2 kmh N 19.6 mph31.5 kmh 30.18 in1022.0 mb - 0.00 in0.0 mm 0.00 in0.0 mm
04:15 PM 74.8°F23.8°C 43.0°F6.1°C 32% 8.1 mph N13.0 kmh N 16.1 mph25.9 kmh 30.18 in1022.0 mb - 0.00 in0.0 mm 0.00 in0.0 mm
04:10 PM 74.9°F23.8°C 43.0°F6.1°C 32% 9.2 mph NNE14.8 kmh NNE 12.7 mph20.4 kmh 30.18 in1022.0 mb - 0.00 in0.0 mm 0.00 in0.0 mm
04:00 PM 75.0°F23.9°C 43.1°F6.2°C 32% 6.9 mph N11.1 kmh N 11.5 mph18.5 kmh 30.18 in1022.0 mb - 0.00 in0.0 mm 0.00 in0.0 mm
03:55 PM 75.2°F24.0°C 43.3°F6.3°C 32% 9.2 mph NE14.8 kmh NE 12.7 mph20.4 kmh 30.18 in1022.0 mb - 0.00 in0.0 mm 0.00 in0.0 mm
03:50 PM 75.2°F24.0°C 42.5°F5.8°C 31% 8.1 mph NNE13.0 kmh NNE 10.4 mph16.7 kmh 30.18 in1022.0 mb - 0.00 in0.0 mm 0.00 in0.0 mm
03:45 PM 75.4°F24.1°C 43.5°F6.4°C 32% 13.8 mph NNE22.2 kmh NNE 18.4 mph29.6 kmh 30.19 in1022.4 mb - 0.00 in0.0 mm 0.00 in0.0 mm
03:40 PM 75.3°F24.1°C 43.4°F6.3°C 32% 8.1 mph N13.0 kmh N 11.5 mph18.5 kmh 30.19 in1022.4 mb - 0.00 in0.0 mm 0.00 in0.0 mm
03:35 PM 75.8°F24.3°C 43.8°F6.6°C 32% 8.1 mph NE13.0 kmh NE 15.0 mph24.1 kmh 30.19 in1022.4 mb - 0.00 in0.0 mm 0.00 in0.0 mm
03:30 PM 75.6°F24.2°C 44.5°F6.9°C 33% 2.3 mph NE3.7 kmh NE 3.5 mph5.6 kmh 30.19 in1022.4 mb - 0.00 in0.0 mm 0.00 in0.0 mm
03:25 PM 75.4°F24.1°C 42.7°F5.9°C 31% 6.9 mph NE11.1 kmh NE 9.2 mph14.8 kmh 30.20 in1022.7 mb - 0.00 in0.0 mm 0.00 in0.0 mm
03:20 PM 75.2°F24.0°C 42.5°F5.8°C 31% 6.9 mph NNE11.1 kmh NNE 10.4 mph16.7 kmh 30.20 in1022.7 mb - 0.00 in0.0 mm 0.00 in0.0 mm
03:15 PM 75.5°F24.2°C 42.7°F5.9°C 31% 10.4 mph NE16.7 kmh NE 16.1 mph25.9 kmh 30.20 in1022.7 mb - 0.00 in0.0 mm 0.00 in0.0 mm
03:10 PM 75.9°F24.4°C 43.1°F6.2°C 31% 8.1 mph NNE13.0 kmh NNE 10.4 mph16.7 kmh 30.20 in1022.7 mb - 0.00 in0.0 mm 0.00 in0.0 mm
03:00 PM 75.1°F23.9°C 43.2°F6.2°C 32% 4.6 mph NE7.4 kmh NE 5.8 mph9.3 kmh 30.20 in1022.7 mb - 0.00 in0.0 mm 0.00 in0.0 mm
02:55 PM 74.9°F23.8°C 43.1°F6.2°C 32% 4.6 mph E7.4 kmh E 5.8 mph9.3 kmh 30.20 in1022.7 mb - 0.00 in0.0 mm 0.00 in0.0 mm
02:50 PM 74.8°F23.8°C 41.3°F5.2°C 30% 3.5 mph NNE5.6 kmh NNE 6.9 mph11.1 kmh 30.20 in1022.7 mb - 0.00 in0.0 mm 0.00 in0.0 mm
02:45 PM 74.8°F23.8°C 42.1°F5.6°C 31% 3.5 mph NE5.6 kmh NE 6.9 mph11.1 kmh 30.21 in1023.0 mb - 0.00 in0.0 mm 0.00 in0.0 mm
02:40 PM 75.1°F23.9°C 42.4°F5.8°C 31% 4.6 mph NE7.4 kmh NE 9.2 mph14.8 kmh 30.21 in1023.0 mb - 0.00 in0.0 mm 0.00 in0.0 mm
02:35 PM 75.6°F24.2°C 42.8°F6.0°C 31% 6.9 mph NE11.1 kmh NE 13.8 mph22.2 kmh 30.21 in1023.0 mb - 0.00 in0.0 mm 0.00 in0.0 mm
02:30 PM 75.6°F24.2°C 41.1°F5.1°C 29% 4.6 mph NE7.4 kmh NE 6.9 mph11.1 kmh 30.21 in1023.0 mb - 0.00 in0.0 mm 0.00 in0.0 mm
02:25 PM 75.6°F24.2°C 42.0°F5.6°C 30% 6.9 mph NE11.1 kmh NE 10.4 mph16.7 kmh 30.21 in1023.0 mb - 0.00 in0.0 mm 0.00 in0.0 mm
02:20 PM 75.6°F24.2°C 41.1°F5.1°C 29% 8.1 mph NNE13.0 kmh NNE 11.5 mph18.5 kmh 30.22 in1023.4 mb - 0.00 in0.0 mm 0.00 in0.0 mm
02:15 PM 75.5°F24.2°C 41.0°F5.0°C 29% 6.9 mph N11.1 kmh N 11.5 mph18.5 kmh 30.22 in1023.4 mb - 0.00 in0.0 mm 0.00 in0.0 mm
02:10 PM 75.7°F24.3°C 40.3°F4.6°C 28% 9.2 mph NW14.8 kmh NW 11.5 mph18.5 kmh 30.22 in1023.4 mb - 0.00 in0.0 mm 0.00 in0.0 mm
02:00 PM 75.1°F23.9°C 41.5°F5.3°C 30% 5.8 mph NE9.3 kmh NE 9.2 mph14.8 kmh 30.23 in1023.7 mb - 0.00 in0.0 mm 0.00 in0.0 mm
01:55 PM 74.9°F23.8°C 41.4°F5.2°C 30% 8.1 mph NE13.0 kmh NE 12.7 mph20.4 kmh 30.23 in1023.7 mb - 0.00 in0.0 mm 0.00 in0.0 mm
01:50 PM 75.1°F23.9°C 40.7°F4.8°C 29% 6.9 mph NNE11.1 kmh NNE 8.1 mph13.0 kmh 30.23 in1023.7 mb - 0.00 in0.0 mm 0.00 in0.0 mm
01:45 PM 75.9°F24.4°C 40.4°F4.7°C 28% 6.9 mph NNE11.1 kmh NNE 11.5 mph18.5 kmh 30.23 in1023.7 mb - 0.00 in0.0 mm 0.00 in0.0 mm
01:40 PM 75.3°F24.1°C 41.7°F5.4°C 30% 4.6 mph N7.4 kmh N 10.4 mph16.7 kmh 30.23 in1023.7 mb - 0.00 in0.0 mm 0.00 in0.0 mm
01:35 PM 75.2°F24.0°C 40.8°F4.9°C 29% 3.5 mph NE5.6 kmh NE 8.1 mph13.0 kmh 30.24 in1024.0 mb - 0.00 in0.0 mm 0.00 in0.0 mm
01:30 PM 75.2°F24.0°C 40.8°F4.9°C 29% 5.8 mph N9.3 kmh N 10.4 mph16.7 kmh 30.24 in1024.0 mb - 0.00 in0.0 mm 0.00 in0.0 mm
01:25 PM 74.8°F23.8°C 40.4°F4.7°C 29% 3.5 mph NE5.6 kmh NE 5.8 mph9.3 kmh 30.24 in1024.0 mb - 0.00 in0.0 mm 0.00 in0.0 mm
01:20 PM 74.7°F23.7°C 40.3°F4.6°C 29% 4.6 mph NE7.4 kmh NE 5.8 mph9.3 kmh 30.24 in1024.0 mb - 0.00 in0.0 mm 0.00 in0.0 mm
01:15 PM 74.8°F23.8°C 42.1°F5.6°C 31% 4.6 mph NE7.4 kmh NE 10.4 mph16.7 kmh 30.24 in1024.0 mb - 0.00 in0.0 mm 0.00 in0.0 mm
01:10 PM 75.7°F24.3°C 42.0°F5.6°C 30% 9.2 mph NE14.8 kmh NE 16.1 mph25.9 kmh 30.24 in1024.0 mb - 0.00 in0.0 mm 0.00 in0.0 mm
01:00 PM 75.0°F23.9°C 41.4°F5.2°C 30% 1.2 mph NE1.9 kmh NE 3.5 mph5.6 kmh 30.24 in1024.0 mb - 0.00 in0.0 mm 0.00 in0.0 mm
12:55 PM 74.6°F23.7°C 40.2°F4.6°C 29% 4.6 mph E7.4 kmh E 4.6 mph7.4 kmh 30.25 in1024.4 mb - 0.00 in0.0 mm 0.00 in0.0 mm
12:50 PM 75.2°F24.0°C 41.6°F5.3°C 30% 3.5 mph ENE5.6 kmh ENE 11.5 mph18.5 kmh 30.25 in1024.4 mb - 0.00 in0.0 mm 0.00 in0.0 mm
12:45 PM 74.9°F23.8°C 40.5°F4.7°C 29% 2.3 mph NNW3.7 kmh NNW 2.3 mph3.7 kmh 30.25 in1024.4 mb - 0.00 in0.0 mm 0.00 in0.0 mm
12:40 PM 74.4°F23.6°C 40.0°F4.4°C 29% 2.3 mph NE3.7 kmh NE 3.5 mph5.6 kmh 30.25 in1024.4 mb - 0.00 in0.0 mm 0.00 in0.0 mm
12:35 PM 74.3°F23.5°C 41.7°F5.4°C 31% 2.3 mph ENE3.7 kmh ENE 3.5 mph5.6 kmh 30.26 in1024.7 mb - 0.00 in0.0 mm 0.00 in0.0 mm
12:30 PM 73.6°F23.1°C 40.3°F4.6°C 30% 6.9 mph NE11.1 kmh NE 9.2 mph14.8 kmh 30.26 in1024.7 mb - 0.00 in0.0 mm 0.00 in0.0 mm
12:25 PM 73.8°F23.2°C 41.3°F5.2°C 31% 9.2 mph NE14.8 kmh NE 12.7 mph20.4 kmh 30.26 in1024.7 mb - 0.00 in0.0 mm 0.00 in0.0 mm
12:20 PM 74.1°F23.4°C 40.7°F4.8°C 30% 6.9 mph N11.1 kmh N 11.5 mph18.5 kmh 30.26 in1024.7 mb - 0.00 in0.0 mm 0.00 in0.0 mm
12:15 PM 73.7°F23.2°C 41.2°F5.1°C 31% 2.3 mph N3.7 kmh N 9.2 mph14.8 kmh 30.26 in1024.7 mb - 0.00 in0.0 mm 0.00 in0.0 mm
12:10 PM 73.5°F23.1°C 40.1°F4.5°C 30% 3.5 mph NE5.6 kmh NE 4.6 mph7.4 kmh 30.27 in1025.1 mb - 0.00 in0.0 mm 0.00 in0.0 mm
12:00 PM 73.0°F22.8°C 40.6°F4.8°C 31% 4.6 mph N7.4 kmh N 9.2 mph14.8 kmh 30.27 in1025.1 mb - 0.00 in0.0 mm 0.00 in0.0 mm
11:55 AM 73.0°F22.8°C 39.7°F4.3°C 30% 10.4 mph NNW16.7 kmh NNW 11.5 mph18.5 kmh 30.27 in1025.1 mb - 0.00 in0.0 mm 0.00 in0.0 mm
11:50 AM 73.1°F22.8°C 41.4°F5.2°C 32% 5.8 mph NE9.3 kmh NE 11.5 mph18.5 kmh 30.27 in1025.1 mb - 0.00 in0.0 mm 0.00 in0.0 mm
11:45 AM 72.9°F22.7°C 41.3°F5.2°C 32% 5.8 mph NNE9.3 kmh NNE 9.2 mph14.8 kmh 30.27 in1025.1 mb - 0.00 in0.0 mm 0.00 in0.0 mm
11:40 AM 72.7°F22.6°C 41.1°F5.1°C 32% 5.8 mph ENE9.3 kmh ENE 8.1 mph13.0 kmh 30.27 in1025.1 mb - 0.00 in0.0 mm 0.00 in0.0 mm
11:35 AM 72.4°F22.4°C 40.8°F4.9°C 32% 4.6 mph E7.4 kmh E 4.6 mph7.4 kmh 30.27 in1025.1 mb - 0.00 in0.0 mm 0.00 in0.0 mm
11:30 AM 72.3°F22.4°C 39.1°F3.9°C 30% 4.6 mph NE7.4 kmh NE 5.8 mph9.3 kmh 30.27 in1025.1 mb - 0.00 in0.0 mm 0.00 in0.0 mm
11:25 AM 72.6°F22.6°C 40.2°F4.6°C 31% 11.5 mph N18.5 kmh N 13.8 mph22.2 kmh 30.28 in1025.4 mb - 0.00 in0.0 mm 0.00 in0.0 mm
11:20 AM 72.8°F22.7°C 41.2°F5.1°C 32% 6.9 mph NE11.1 kmh NE 10.4 mph16.7 kmh 30.28 in1025.4 mb - 0.00 in0.0 mm 0.00 in0.0 mm
11:15 AM 72.5°F22.5°C 41.8°F5.4°C 33% 4.6 mph NE7.4 kmh NE 11.5 mph18.5 kmh 30.28 in1025.4 mb - 0.00 in0.0 mm 0.00 in0.0 mm
11:10 AM 72.5°F22.5°C 40.1°F4.5°C 31% 8.1 mph NE13.0 kmh NE 9.2 mph14.8 kmh 30.28 in1025.4 mb - 0.00 in0.0 mm 0.00 in0.0 mm
11:00 AM 71.4°F21.9°C 40.8°F4.9°C 33% 5.8 mph NE9.3 kmh NE 12.7 mph20.4 kmh 30.28 in1025.4 mb - 0.00 in0.0 mm 0.00 in0.0 mm
10:55 AM 71.1°F21.7°C 39.7°F4.3°C 32% 8.1 mph NE13.0 kmh NE 11.5 mph18.5 kmh 30.29 in1025.7 mb - 0.00 in0.0 mm 0.00 in0.0 mm
10:50 AM 70.9°F21.6°C 39.6°F4.2°C 32% 5.8 mph NE9.3 kmh NE 13.8 mph22.2 kmh 30.29 in1025.7 mb - 0.00 in0.0 mm 0.00 in0.0 mm
10:45 AM 71.0°F21.7°C 39.6°F4.2°C 32% 6.9 mph NE11.1 kmh NE 11.5 mph18.5 kmh 30.29 in1025.7 mb - 0.00 in0.0 mm 0.00 in0.0 mm
10:40 AM 71.3°F21.8°C 39.9°F4.4°C 32% 5.8 mph NE9.3 kmh NE 17.3 mph27.8 kmh 30.29 in1025.7 mb - 0.00 in0.0 mm 0.00 in0.0 mm
10:35 AM 71.2°F21.8°C 41.4°F5.2°C 34% 5.8 mph NE9.3 kmh NE 8.1 mph13.0 kmh 30.29 in1025.7 mb - 0.00 in0.0 mm 0.00 in0.0 mm
10:30 AM 70.9°F21.6°C 41.2°F5.1°C 34% 5.8 mph NE9.3 kmh NE 11.5 mph18.5 kmh 30.30 in1026.1 mb - 0.00 in0.0 mm 0.00 in0.0 mm
10:25 AM 70.7°F21.5°C 40.2°F4.6°C 33% 6.9 mph NE11.1 kmh NE 10.4 mph16.7 kmh 30.30 in1026.1 mb - 0.00 in0.0 mm 0.00 in0.0 mm
10:20 AM 70.6°F21.4°C 40.1°F4.5°C 33% 9.2 mph NE14.8 kmh NE 15.0 mph24.1 kmh 30.30 in1026.1 mb - 0.00 in0.0 mm 0.00 in0.0 mm
10:15 AM 70.5°F21.4°C 40.0°F4.4°C 33% 10.4 mph NNE16.7 kmh NNE 11.5 mph18.5 kmh 30.30 in1026.1 mb - 0.00 in0.0 mm 0.00 in0.0 mm
10:10 AM 70.4°F21.3°C 40.0°F4.4°C 33% 9.2 mph NE14.8 kmh NE 15.0 mph24.1 kmh 30.30 in1026.1 mb - 0.00 in0.0 mm 0.00 in0.0 mm
10:00 AM 70.2°F21.2°C 39.8°F4.3°C 33% 9.2 mph NE14.8 kmh NE 13.8 mph22.2 kmh 30.30 in1026.1 mb - 0.00 in0.0 mm 0.00 in0.0 mm
09:55 AM 70.6°F21.4°C 40.9°F4.9°C 34% 9.2 mph NNE14.8 kmh NNE 17.3 mph27.8 kmh 30.30 in1026.1 mb - 0.00 in0.0 mm 0.00 in0.0 mm
09:50 AM 70.4°F21.3°C 40.7°F4.8°C 34% 4.6 mph NE7.4 kmh NE 5.8 mph9.3 kmh 30.30 in1026.1 mb - 0.00 in0.0 mm 0.00 in0.0 mm
09:45 AM 70.4°F21.3°C 41.4°F5.2°C 35% 6.9 mph NE11.1 kmh NE 11.5 mph18.5 kmh 30.30 in1026.1 mb - 0.00 in0.0 mm 0.00 in0.0 mm
09:40 AM 70.1°F21.2°C 42.6°F5.9°C 37% 6.9 mph NE11.1 kmh NE 11.5 mph18.5 kmh 30.30 in1026.1 mb - 0.00 in0.0 mm 0.00 in0.0 mm
09:35 AM 69.6°F20.9°C 41.4°F5.2°C 36% 4.6 mph NE7.4 kmh NE 8.1 mph13.0 kmh 30.30 in1026.1 mb - 0.00 in0.0 mm 0.00 in0.0 mm
09:30 AM 69.3°F20.7°C 41.2°F5.1°C 36% 8.1 mph NNE13.0 kmh NNE 10.4 mph16.7 kmh 30.30 in1026.1 mb - 0.00 in0.0 mm 0.00 in0.0 mm
09:25 AM 69.4°F20.8°C 40.5°F4.7°C 35% 8.1 mph NE13.0 kmh NE 10.4 mph16.7 kmh 30.31 in1026.4 mb - 0.00 in0.0 mm 0.00 in0.0 mm
09:20 AM 69.3°F20.7°C 41.9°F5.5°C 37% 2.3 mph E3.7 kmh E 3.5 mph5.6 kmh 30.31 in1026.4 mb - 0.00 in0.0 mm 0.00 in0.0 mm
09:15 AM 68.8°F20.4°C 41.5°F5.3°C 37% 1.2 mph E1.9 kmh E 1.2 mph1.9 kmh 30.31 in1026.4 mb - 0.00 in0.0 mm 0.00 in0.0 mm
09:10 AM 68.5°F20.3°C 40.5°F4.7°C 36% 2.3 mph SE3.7 kmh SE 3.5 mph5.6 kmh 30.31 in1026.4 mb - 0.00 in0.0 mm 0.00 in0.0 mm
09:00 AM 68.4°F20.2°C 41.8°F5.4°C 38% 1.2 mph E1.9 kmh E 2.3 mph3.7 kmh 30.32 in1026.8 mb - 0.00 in0.0 mm 0.00 in0.0 mm
08:55 AM 68.1°F20.1°C 41.6°F5.3°C 38% 2.3 mph E3.7 kmh E 3.5 mph5.6 kmh 30.32 in1026.8 mb - 0.00 in0.0 mm 0.00 in0.0 mm
08:50 AM 67.8°F19.9°C 42.6°F5.9°C 40% 2.3 mph ESE3.7 kmh ESE 3.5 mph5.6 kmh 30.32 in1026.8 mb - 0.00 in0.0 mm 0.00 in0.0 mm
08:45 AM 66.8°F19.3°C 41.7°F5.4°C 40% Calm Calm -- 30.32 in1026.8 mb - 0.00 in0.0 mm 0.00 in0.0 mm
08:40 AM 66.2°F19.0°C 43.0°F6.1°C 43% Calm Calm 1.2 mph1.9 kmh 30.32 in1026.8 mb - 0.00 in0.0 mm 0.00 in0.0 mm
08:35 AM 65.7°F18.7°C 42.6°F5.9°C 43% 1.2 mph ESE1.9 kmh ESE 1.2 mph1.9 kmh 30.32 in1026.8 mb - 0.00 in0.0 mm 0.00 in0.0 mm
08:30 AM 65.2°F18.4°C 42.7°F5.9°C 44% Calm Calm 1.2 mph1.9 kmh 30.32 in1026.8 mb - 0.00 in0.0 mm 0.00 in0.0 mm
08:25 AM 64.8°F18.2°C 41.8°F5.4°C 43% 1.2 mph ESE1.9 kmh ESE 2.3 mph3.7 kmh 30.32 in1026.8 mb - 0.00 in0.0 mm 0.00 in0.0 mm
08:20 AM 64.4°F18.0°C 42.5°F5.8°C 45% Calm Calm 1.2 mph1.9 kmh 30.32 in1026.8 mb - 0.00 in0.0 mm 0.00 in0.0 mm
08:15 AM 64.0°F17.8°C 41.6°F5.3°C 44% 1.2 mph ESE1.9 kmh ESE 2.3 mph3.7 kmh 30.32 in1026.8 mb - 0.00 in0.0 mm 0.00 in0.0 mm
08:10 AM 63.7°F17.6°C 41.3°F5.2°C 44% 2.3 mph ESE3.7 kmh ESE 3.5 mph5.6 kmh 30.32 in1026.8 mb - 0.00 in0.0 mm 0.00 in0.0 mm
08:00 AM 62.6°F17.0°C 40.4°F4.7°C 44% 1.2 mph SW1.9 kmh SW 2.3 mph3.7 kmh 30.32 in1026.8 mb - 0.00 in0.0 mm 0.00 in0.0 mm
07:55 AM 61.8°F16.6°C 40.2°F4.6°C 45% Calm Calm 1.2 mph1.9 kmh 30.32 in1026.8 mb - 0.00 in0.0 mm 0.00 in0.0 mm
07:50 AM 61.3°F16.3°C 39.2°F4.0°C 44% Calm Calm 1.2 mph1.9 kmh 30.32 in1026.8 mb - 0.00 in0.0 mm 0.00 in0.0 mm
07:45 AM 60.9°F16.1°C 39.4°F4.1°C 45% Calm Calm 1.2 mph1.9 kmh 30.32 in1026.8 mb - 0.00 in0.0 mm 0.00 in0.0 mm
07:40 AM 60.5°F15.8°C 39.0°F3.9°C 45% 2.3 mph SW3.7 kmh SW 3.5 mph5.6 kmh 30.32 in1026.8 mb - 0.00 in0.0 mm 0.00 in0.0 mm
07:35 AM 59.8°F15.4°C 41.1°F5.1°C 50% Calm Calm 2.3 mph3.7 kmh 30.32 in1026.8 mb - 0.00 in0.0 mm 0.00 in0.0 mm
07:30 AM 58.8°F14.9°C 42.2°F5.7°C 54% Calm Calm 1.2 mph1.9 kmh 30.32 in1026.8 mb - 0.00 in0.0 mm 0.00 in0.0 mm
07:25 AM 58.0°F14.4°C 42.4°F5.8°C 56% Calm Calm -- 30.32 in1026.8 mb - 0.00 in0.0 mm 0.00 in0.0 mm
07:20 AM 57.3°F14.1°C 42.2°F5.7°C 57% 1.2 mph SW1.9 kmh SW 2.3 mph3.7 kmh 30.32 in1026.8 mb - 0.00 in0.0 mm 0.00 in0.0 mm
07:15 AM 56.5°F13.6°C 39.6°F4.2°C 53% Calm Calm 1.2 mph1.9 kmh 30.32 in1026.8 mb - 0.00 in0.0 mm 0.00 in0.0 mm
07:10 AM 56.0°F13.3°C 40.5°F4.7°C 56% Calm Calm -- 30.32 in1026.8 mb - 0.00 in0.0 mm 0.00 in0.0 mm
07:00 AM 54.5°F12.5°C 40.4°F4.7°C 59% 2.3 mph SW3.7 kmh SW 3.5 mph5.6 kmh 30.32 in1026.8 mb - 0.00 in0.0 mm 0.00 in0.0 mm
06:55 AM 54.0°F12.2°C 40.4°F4.7°C 60% Calm Calm -- 30.32 in1026.8 mb - 0.00 in0.0 mm 0.00 in0.0 mm
06:50 AM 53.7°F12.1°C 40.6°F4.8°C 61% 1.2 mph SW1.9 kmh SW 1.2 mph1.9 kmh 30.32 in1026.8 mb - 0.00 in0.0 mm 0.00 in0.0 mm
06:45 AM 53.4°F11.9°C 40.7°F4.8°C 62% 1.2 mph SW1.9 kmh SW 1.2 mph1.9 kmh 30.32 in1026.8 mb - 0.00 in0.0 mm 0.00 in0.0 mm
06:40 AM 53.0°F11.7°C 40.3°F4.6°C 62% 1.2 mph SW1.9 kmh SW 2.3 mph3.7 kmh 30.32 in1026.8 mb - 0.00 in0.0 mm 0.00 in0.0 mm
06:35 AM 52.5°F11.4°C 39.8°F4.3°C 62% Calm Calm 1.2 mph1.9 kmh 30.32 in1026.8 mb - 0.00 in0.0 mm 0.00 in0.0 mm
06:30 AM 52.0°F11.1°C 39.3°F4.1°C 62% Calm Calm -- 30.32 in1026.8 mb - 0.00 in0.0 mm 0.00 in0.0 mm
06:25 AM 51.4°F10.8°C 39.2°F4.0°C 63% 1.2 mph SW1.9 kmh SW 1.2 mph1.9 kmh 30.32 in1026.8 mb - 0.00 in0.0 mm 0.00 in0.0 mm
06:20 AM 50.7°F10.4°C 39.0°F3.9°C 64% 1.2 mph SW1.9 kmh SW 1.2 mph1.9 kmh 30.32 in1026.8 mb - 0.00 in0.0 mm 0.00 in0.0 mm
06:15 AM 50.1°F10.1°C 38.0°F3.3°C 63% Calm Calm -- 30.32 in1026.8 mb - 0.00 in0.0 mm 0.00 in0.0 mm
06:10 AM 49.6°F9.8°C 38.3°F3.5°C 65% Calm Calm 1.2 mph1.9 kmh 30.32 in1026.8 mb - 0.00 in0.0 mm 0.00 in0.0 mm
06:00 AM 48.4°F9.1°C 38.0°F3.3°C 67% 1.2 mph SW1.9 kmh SW 3.5 mph5.6 kmh 30.31 in1026.4 mb - 0.00 in0.0 mm 0.00 in0.0 mm
05:55 AM 48.2°F9.0°C 38.1°F3.4°C 68% Calm Calm 2.3 mph3.7 kmh 30.31 in1026.4 mb - 0.00 in0.0 mm 0.00 in0.0 mm
05:50 AM 48.1°F8.9°C 38.0°F3.3°C 68% 2.3 mph SW3.7 kmh SW 3.5 mph5.6 kmh 30.31 in1026.4 mb - 0.00 in0.0 mm 0.00 in0.0 mm
05:45 AM 48.2°F9.0°C 38.1°F3.4°C 68% 2.3 mph SW3.7 kmh SW 3.5 mph5.6 kmh 30.31 in1026.4 mb - 0.00 in0.0 mm 0.00 in0.0 mm
05:40 AM 48.3°F9.1°C 37.8°F3.2°C 67% 2.3 mph SW3.7 kmh SW 3.5 mph5.6 kmh 30.31 in1026.4 mb - 0.00 in0.0 mm 0.00 in0.0 mm
05:35 AM 48.4°F9.1°C 37.9°F3.3°C 67% 3.5 mph SW5.6 kmh SW 3.5 mph5.6 kmh 30.31 in1026.4 mb - 0.00 in0.0 mm 0.00 in0.0 mm
05:30 AM 48.5°F9.2°C 38.0°F3.3°C 67% 2.3 mph SW3.7 kmh SW 3.5 mph5.6 kmh 30.31 in1026.4 mb - 0.00 in0.0 mm 0.00 in0.0 mm
05:25 AM 48.5°F9.2°C 38.0°F3.3°C 67% 2.3 mph SW3.7 kmh SW 3.5 mph5.6 kmh 30.31 in1026.4 mb - 0.00 in0.0 mm 0.00 in0.0 mm
05:20 AM 48.5°F9.2°C 38.0°F3.3°C 67% 2.3 mph SW3.7 kmh SW 3.5 mph5.6 kmh 30.31 in1026.4 mb - 0.00 in0.0 mm 0.00 in0.0 mm
05:15 AM 48.4°F9.1°C 38.0°F3.3°C 67% 1.2 mph SW1.9 kmh SW 2.3 mph3.7 kmh 30.31 in1026.4 mb - 0.00 in0.0 mm 0.00 in0.0 mm
05:10 AM 48.3°F9.1°C 38.3°F3.5°C 68% 2.3 mph SW3.7 kmh SW 3.5 mph5.6 kmh 30.31 in1026.4 mb - 0.00 in0.0 mm 0.00 in0.0 mm
05:00 AM 48.3°F9.1°C 38.2°F3.4°C 68% 1.2 mph SW1.9 kmh SW 2.3 mph3.7 kmh 30.31 in1026.4 mb - 0.00 in0.0 mm 0.00 in0.0 mm
04:55 AM 48.3°F9.1°C 38.6°F3.7°C 69% 1.2 mph SW1.9 kmh SW 3.5 mph5.6 kmh 30.31 in1026.4 mb - 0.00 in0.0 mm 0.00 in0.0 mm
04:50 AM 48.3°F9.1°C 38.6°F3.7°C 69% 2.3 mph SW3.7 kmh SW 3.5 mph5.6 kmh 30.31 in1026.4 mb - 0.00 in0.0 mm 0.00 in0.0 mm
04:45 AM 48.3°F9.1°C 39.0°F3.9°C 70% 3.5 mph SW5.6 kmh SW 3.5 mph5.6 kmh 30.31 in1026.4 mb - 0.00 in0.0 mm 0.00 in0.0 mm
04:40 AM 48.3°F9.1°C 38.6°F3.7°C 69% 2.3 mph SW3.7 kmh SW 3.5 mph5.6 kmh 30.31 in1026.4 mb - 0.00 in0.0 mm 0.00 in0.0 mm
04:35 AM 48.1°F8.9°C 38.8°F3.8°C 70% 2.3 mph SW3.7 kmh SW 3.5 mph5.6 kmh 30.31 in1026.4 mb - 0.00 in0.0 mm 0.00 in0.0 mm
04:30 AM 48.0°F8.9°C 39.0°F3.9°C 71% 2.3 mph SW3.7 kmh SW 3.5 mph5.6 kmh 30.31 in1026.4 mb - 0.00 in0.0 mm 0.00 in0.0 mm
04:25 AM 48.0°F8.9°C 39.4°F4.1°C 72% 1.2 mph SW1.9 kmh SW 2.3 mph3.7 kmh 30.31 in1026.4 mb - 0.00 in0.0 mm 0.00 in0.0 mm
04:20 AM 48.1°F8.9°C 39.8°F4.3°C 73% 3.5 mph SW5.6 kmh SW 3.5 mph5.6 kmh 30.31 in1026.4 mb - 0.00 in0.0 mm 0.00 in0.0 mm
04:15 AM 48.1°F8.9°C 39.9°F4.4°C 73% 3.5 mph SW5.6 kmh SW 4.6 mph7.4 kmh 30.30 in1026.1 mb - 0.00 in0.0 mm 0.00 in0.0 mm
04:10 AM 48.1°F8.9°C 39.9°F4.4°C 73% 3.5 mph SW5.6 kmh SW 3.5 mph5.6 kmh 30.31 in1026.4 mb - 0.00 in0.0 mm 0.00 in0.0 mm
04:00 AM 48.0°F8.9°C 40.1°F4.5°C 74% 3.5 mph SW5.6 kmh SW 3.5 mph5.6 kmh 30.31 in1026.4 mb - 0.00 in0.0 mm 0.00 in0.0 mm
03:55 AM 48.0°F8.9°C 40.1°F4.5°C 74% 1.2 mph SW1.9 kmh SW 3.5 mph5.6 kmh 30.31 in1026.4 mb - 0.00 in0.0 mm 0.00 in0.0 mm
03:50 AM 48.0°F8.9°C 40.4°F4.7°C 75% 2.3 mph SW3.7 kmh SW 3.5 mph5.6 kmh 30.31 in1026.4 mb - 0.00 in0.0 mm 0.00 in0.0 mm
03:45 AM 48.0°F8.9°C 40.4°F4.7°C 75% 2.3 mph SW3.7 kmh SW 3.5 mph5.6 kmh 30.31 in1026.4 mb - 0.00 in0.0 mm 0.00 in0.0 mm
03:40 AM 48.0°F8.9°C 40.4°F4.7°C 75% 3.5 mph SW5.6 kmh SW 3.5 mph5.6 kmh 30.31 in1026.4 mb - 0.00 in0.0 mm 0.00 in0.0 mm
03:35 AM 47.9°F8.8°C 40.7°F4.8°C 76% 2.3 mph SW3.7 kmh SW 3.5 mph5.6 kmh 30.31 in1026.4 mb - 0.00 in0.0 mm 0.00 in0.0 mm
03:30 AM 47.8°F8.8°C 40.6°F4.8°C 76% 3.5 mph SW5.6 kmh SW 3.5 mph5.6 kmh 30.31 in1026.4 mb - 0.00 in0.0 mm 0.00 in0.0 mm
03:25 AM 47.8°F8.8°C 40.6°F4.8°C 76% 3.5 mph SW5.6 kmh SW 3.5 mph5.6 kmh 30.31 in1026.4 mb - 0.00 in0.0 mm 0.00 in0.0 mm
03:20 AM 47.9°F8.8°C 41.0°F5.0°C 77% 3.5 mph SW5.6 kmh SW 3.5 mph5.6 kmh 30.31 in1026.4 mb - 0.00 in0.0 mm 0.00 in0.0 mm
03:15 AM 48.0°F8.9°C 40.8°F4.9°C 76% 3.5 mph SW5.6 kmh SW 3.5 mph5.6 kmh 30.31 in1026.4 mb - 0.00 in0.0 mm 0.00 in0.0 mm
03:10 AM 48.1°F8.9°C 40.9°F4.9°C 76% 1.2 mph SW1.9 kmh SW 2.3 mph3.7 kmh 30.31 in1026.4 mb - 0.00 in0.0 mm 0.00 in0.0 mm
03:00 AM 48.4°F9.1°C 41.2°F5.1°C 76% Calm Calm -- 30.31 in1026.4 mb - 0.00 in0.0 mm 0.00 in0.0 mm
02:55 AM 48.5°F9.2°C 41.3°F5.2°C 76% 2.3 mph SW3.7 kmh SW 3.5 mph5.6 kmh 30.31 in1026.4 mb - 0.00 in0.0 mm 0.00 in0.0 mm
02:50 AM 48.7°F9.3°C 41.1°F5.1°C 75% Calm Calm -- 30.31 in1026.4 mb - 0.00 in0.0 mm 0.00 in0.0 mm
02:45 AM 48.9°F9.4°C 41.3°F5.2°C 75% 1.2 mph SW1.9 kmh SW 3.5 mph5.6 kmh 30.31 in1026.4 mb - 0.00 in0.0 mm 0.00 in0.0 mm
02:40 AM 49.3°F9.6°C 41.3°F5.2°C 74% 1.2 mph SW1.9 kmh SW 2.3 mph3.7 kmh 30.31 in1026.4 mb - 0.00 in0.0 mm 0.00 in0.0 mm
02:35 AM 49.6°F9.8°C 41.6°F5.3°C 74% 2.3 mph SW3.7 kmh SW 3.5 mph5.6 kmh 30.31 in1026.4 mb - 0.00 in0.0 mm 0.00 in0.0 mm
02:30 AM 49.9°F9.9°C 41.6°F5.3°C 73% 2.3 mph SW3.7 kmh SW 3.5 mph5.6 kmh 30.31 in1026.4 mb - 0.00 in0.0 mm 0.00 in0.0 mm
02:25 AM 50.2°F10.1°C 41.8°F5.4°C 73% 1.2 mph SW1.9 kmh SW 3.5 mph5.6 kmh 30.31 in1026.4 mb - 0.00 in0.0 mm 0.00 in0.0 mm
02:20 AM 50.4°F10.2°C 41.7°F5.4°C 72% Calm Calm 1.2 mph1.9 kmh 30.31 in1026.4 mb - 0.00 in0.0 mm 0.00 in0.0 mm
02:15 AM 50.6°F10.3°C 41.9°F5.5°C 72% 1.2 mph SW1.9 kmh SW 2.3 mph3.7 kmh 30.31 in1026.4 mb - 0.00 in0.0 mm 0.00 in0.0 mm
02:10 AM 50.8°F10.4°C 41.7°F5.4°C 71% Calm Calm 1.2 mph1.9 kmh 30.31 in1026.4 mb - 0.00 in0.0 mm 0.00 in0.0 mm
02:00 AM 51.1°F10.6°C 42.0°F5.6°C 71% 1.2 mph SW1.9 kmh SW 2.3 mph3.7 kmh 30.31 in1026.4 mb - 0.00 in0.0 mm 0.00 in0.0 mm
01:55 AM 51.2°F10.7°C 42.1°F5.6°C 71% 2.3 mph SW3.7 kmh SW 3.5 mph5.6 kmh 30.31 in1026.4 mb - 0.00 in0.0 mm 0.00 in0.0 mm
01:50 AM 51.4°F10.8°C 42.3°F5.7°C 71% 2.3 mph SW3.7 kmh SW 3.5 mph5.6 kmh 30.31 in1026.4 mb - 0.00 in0.0 mm 0.00 in0.0 mm
01:45 AM 51.7°F10.9°C 42.2°F5.7°C 70% 2.3 mph SW3.7 kmh SW 3.5 mph5.6 kmh 30.31 in1026.4 mb - 0.00 in0.0 mm 0.00 in0.0 mm
01:40 AM 52.0°F11.1°C 42.5°F5.8°C 70% 2.3 mph SW3.7 kmh SW 3.5 mph5.6 kmh 30.31 in1026.4 mb - 0.00 in0.0 mm 0.00 in0.0 mm
01:35 AM 52.2°F11.2°C 42.3°F5.7°C 69% 1.2 mph SW1.9 kmh SW 1.2 mph1.9 kmh 30.32 in1026.8 mb - 0.00 in0.0 mm 0.00 in0.0 mm
01:30 AM 52.5°F11.4°C 42.3°F5.7°C 68% 1.2 mph SW1.9 kmh SW 2.3 mph3.7 kmh 30.32 in1026.8 mb - 0.00 in0.0 mm 0.00 in0.0 mm
01:25 AM 52.7°F11.5°C 42.4°F5.8°C 68% Calm Calm -- 30.32 in1026.8 mb - 0.00 in0.0 mm 0.00 in0.0 mm
01:20 AM 52.8°F11.6°C 42.5°F5.8°C 68% Calm Calm 1.2 mph1.9 kmh 30.32 in1026.8 mb - 0.00 in0.0 mm 0.00 in0.0 mm
01:15 AM 52.9°F11.6°C 42.6°F5.9°C 68% Calm Calm -- 30.32 in1026.8 mb - 0.00 in0.0 mm 0.00 in0.0 mm
01:10 AM 52.9°F11.6°C 42.3°F5.7°C 67% Calm Calm 2.3 mph3.7 kmh 30.32 in1026.8 mb - 0.00 in0.0 mm 0.00 in0.0 mm
01:00 AM 53.1°F11.7°C 42.4°F5.8°C 67% Calm Calm -- 30.33 in1027.1 mb - 0.00 in0.0 mm 0.00 in0.0 mm
12:55 AM 53.2°F11.8°C 42.5°F5.8°C 67% 2.3 mph SW3.7 kmh SW 3.5 mph5.6 kmh 30.33 in1027.1 mb - 0.00 in0.0 mm 0.00 in0.0 mm
12:50 AM 53.1°F11.7°C 42.4°F5.8°C 67% 1.2 mph SW1.9 kmh SW 2.3 mph3.7 kmh 30.33 in1027.1 mb - 0.00 in0.0 mm 0.00 in0.0 mm
12:45 AM 53.2°F11.8°C 42.5°F5.8°C 67% 1.2 mph SW1.9 kmh SW 1.2 mph1.9 kmh 30.33 in1027.1 mb - 0.00 in0.0 mm 0.00 in0.0 mm
12:40 AM 53.2°F11.8°C 42.5°F5.8°C 67% Calm Calm 1.2 mph1.9 kmh 30.33 in1027.1 mb - 0.00 in0.0 mm 0.00 in0.0 mm
12:35 AM 53.2°F11.8°C 42.5°F5.8°C 67% Calm Calm -- 30.33 in1027.1 mb - 0.00 in0.0 mm 0.00 in0.0 mm
12:30 AM 53.2°F11.8°C 42.5°F5.8°C 67% 1.2 mph SW1.9 kmh SW 1.2 mph1.9 kmh 30.33 in1027.1 mb - 0.00 in0.0 mm 0.00 in0.0 mm
12:25 AM 53.2°F11.8°C 42.5°F5.8°C 67% 1.2 mph SW1.9 kmh SW 3.5 mph5.6 kmh 30.33 in1027.1 mb - 0.00 in0.0 mm 0.00 in0.0 mm
12:20 AM 53.2°F11.8°C 42.5°F5.8°C 67% 1.2 mph SW1.9 kmh SW 1.2 mph1.9 kmh 30.33 in1027.1 mb - 0.00 in0.0 mm 0.00 in0.0 mm
12:15 AM 53.3°F11.8°C 42.2°F5.7°C 66% Calm Calm 1.2 mph1.9 kmh 30.33 in1027.1 mb - 0.00 in0.0 mm 0.00 in0.0 mm
12:10 AM 53.4°F11.9°C 42.3°F5.7°C 66% Calm Calm -- 30.33 in1027.1 mb - 0.00 in0.0 mm 0.00 in0.0 mm
12:00 AM 53.7°F12.1°C 42.6°F5.9°C 66% Calm Calm -- 30.34 in1027.4 mb - 0.00 in0.0 mm 0.00 in0.0 mm